sensor_id;sensor_type;location;lat;lon;timestamp;temperature;humidity
7658;DHT22;8462;53.156;8.220;2022-12-10T00:01:21;3.60;90.30
7658;DHT22;8462;53.156;8.220;2022-12-10T00:03:48;3.60;90.20
7658;DHT22;8462;53.156;8.220;2022-12-10T00:06:17;3.60;90.20
7658;DHT22;8462;53.156;8.220;2022-12-10T00:08:46;3.50;90.30
7658;DHT22;8462;53.156;8.220;2022-12-10T00:11:14;3.50;90.30
7658;DHT22;8462;53.156;8.220;2022-12-10T00:13:42;3.50;90.40
7658;DHT22;8462;53.156;8.220;2022-12-10T00:16:11;3.50;90.60
7658;DHT22;8462;53.156;8.220;2022-12-10T00:18:38;3.50;90.80
7658;DHT22;8462;53.156;8.220;2022-12-10T00:21:07;3.60;90.90
7658;DHT22;8462;53.156;8.220;2022-12-10T00:23:34;3.60;90.50
7658;DHT22;8462;53.156;8.220;2022-12-10T00:26:04;3.60;90.60
7658;DHT22;8462;53.156;8.220;2022-12-10T00:28:31;3.70;90.70
7658;DHT22;8462;53.156;8.220;2022-12-10T00:31:02;3.70;90.70
7658;DHT22;8462;53.156;8.220;2022-12-10T00:33:29;3.70;90.50
7658;DHT22;8462;53.156;8.220;2022-12-10T00:36:01;3.80;90.50
7658;DHT22;8462;53.156;8.220;2022-12-10T00:38:29;3.80;90.30
7658;DHT22;8462;53.156;8.220;2022-12-10T00:40:57;3.70;90.20
7658;DHT22;8462;53.156;8.220;2022-12-10T00:43:25;3.70;90.00
7658;DHT22;8462;53.156;8.220;2022-12-10T00:45:52;3.60;89.90
7658;DHT22;8462;53.156;8.220;2022-12-10T00:48:19;3.60;90.00
7658;DHT22;8462;53.156;8.220;2022-12-10T00:50:55;3.50;90.00
7658;DHT22;8462;53.156;8.220;2022-12-10T00:53:23;3.50;90.10
7658;DHT22;8462;53.156;8.220;2022-12-10T00:55:50;3.40;90.20
7658;DHT22;8462;53.156;8.220;2022-12-10T00:58:16;3.30;90.20
7658;DHT22;8462;53.156;8.220;2022-12-10T01:00:45;3.30;90.30
7658;DHT22;8462;53.156;8.220;2022-12-10T01:03:12;3.20;90.40
7658;DHT22;8462;53.156;8.220;2022-12-10T01:05:39;3.20;90.30
7658;DHT22;8462;53.156;8.220;2022-12-10T01:08:06;3.20;90.40
7658;DHT22;8462;53.156;8.220;2022-12-10T01:10:33;3.20;90.40
7658;DHT22;8462;53.156;8.220;2022-12-10T01:13:01;3.20;90.40
7658;DHT22;8462;53.156;8.220;2022-12-10T01:15:28;3.20;90.50
7658;DHT22;8462;53.156;8.220;2022-12-10T01:17:57;3.20;90.50
7658;DHT22;8462;53.156;8.220;2022-12-10T01:20:24;3.20;90.60
7658;DHT22;8462;53.156;8.220;2022-12-10T01:22:51;3.30;90.50
7658;DHT22;8462;53.156;8.220;2022-12-10T01:25:18;3.20;90.30
7658;DHT22;8462;53.156;8.220;2022-12-10T01:27:45;3.20;90.20
7658;DHT22;8462;53.156;8.220;2022-12-10T01:30:13;3.20;90.10
7658;DHT22;8462;53.156;8.220;2022-12-10T01:32:39;3.20;90.10
7658;DHT22;8462;53.156;8.220;2022-12-10T01:35:08;3.10;89.90
7658;DHT22;8462;53.156;8.220;2022-12-10T01:37:35;3.10;90.20
7658;DHT22;8462;53.156;8.220;2022-12-10T01:40:06;3.10;90.40
7658;DHT22;8462;53.156;8.220;2022-12-10T01:42:33;3.20;90.60
7658;DHT22;8462;53.156;8.220;2022-12-10T01:45:07;3.20;90.60
7658;DHT22;8462;53.156;8.220;2022-12-10T01:47:35;3.20;90.40
7658;DHT22;8462;53.156;8.220;2022-12-10T01:50:04;3.30;90.40
7658;DHT22;8462;53.156;8.220;2022-12-10T01:52:32;3.30;90.30
7658;DHT22;8462;53.156;8.220;2022-12-10T01:54:59;3.40;90.20
7658;DHT22;8462;53.156;8.220;2022-12-10T01:57:27;3.40;90.20
7658;DHT22;8462;53.156;8.220;2022-12-10T01:59:57;3.40;90.20
7658;DHT22;8462;53.156;8.220;2022-12-10T02:02:38;3.50;90.00
7658;DHT22;8462;53.156;8.220;2022-12-10T02:05:21;3.50;89.90
7658;DHT22;8462;53.156;8.220;2022-12-10T02:07:59;3.60;90.10
7658;DHT22;8462;53.156;8.220;2022-12-10T02:10:41;3.70;90.10
7658;DHT22;8462;53.156;8.220;2022-12-10T02:13:17;3.70;89.50
7658;DHT22;8462;53.156;8.220;2022-12-10T02:15:49;3.70;89.70
7658;DHT22;8462;53.156;8.220;2022-12-10T02:18:21;3.80;89.60
7658;DHT22;8462;53.156;8.220;2022-12-10T02:20:50;3.80;88.90
7658;DHT22;8462;53.156;8.220;2022-12-10T02:23:22;3.90;88.70
7658;DHT22;8462;53.156;8.220;2022-12-10T02:26:00;3.90;88.60
7658;DHT22;8462;53.156;8.220;2022-12-10T02:28:48;3.90;87.90
7658;DHT22;8462;53.156;8.220;2022-12-10T02:31:23;3.90;87.90
7658;DHT22;8462;53.156;8.220;2022-12-10T02:33:55;3.80;87.60
7658;DHT22;8462;53.156;8.220;2022-12-10T02:36:25;3.80;87.70
7658;DHT22;8462;53.156;8.220;2022-12-10T02:38:54;3.80;87.80
7658;DHT22;8462;53.156;8.220;2022-12-10T02:41:27;3.80;87.90
7658;DHT22;8462;53.156;8.220;2022-12-10T02:43:58;3.70;87.20
7658;DHT22;8462;53.156;8.220;2022-12-10T02:46:28;3.70;87.20
7658;DHT22;8462;53.156;8.220;2022-12-10T02:48:58;3.70;87.20
7658;DHT22;8462;53.156;8.220;2022-12-10T02:51:26;3.70;87.20
7658;DHT22;8462;53.156;8.220;2022-12-10T02:53:59;3.70;87.30
7658;DHT22;8462;53.156;8.220;2022-12-10T02:56:33;3.70;87.60
7658;DHT22;8462;53.156;8.220;2022-12-10T02:59:09;3.70;87.40
7658;DHT22;8462;53.156;8.220;2022-12-10T03:01:49;3.70;87.10
7658;DHT22;8462;53.156;8.220;2022-12-10T03:04:23;3.70;87.00
7658;DHT22;8462;53.156;8.220;2022-12-10T03:06:54;3.60;86.70
7658;DHT22;8462;53.156;8.220;2022-12-10T03:09:23;3.60;86.50
7658;DHT22;8462;53.156;8.220;2022-12-10T03:11:58;3.60;86.50
7658;DHT22;8462;53.156;8.220;2022-12-10T03:14:28;3.50;86.70
7658;DHT22;8462;53.156;8.220;2022-12-10T03:16:59;3.50;86.50
7658;DHT22;8462;53.156;8.220;2022-12-10T03:19:31;3.50;86.60
7658;DHT22;8462;53.156;8.220;2022-12-10T03:21:59;3.40;86.70
7658;DHT22;8462;53.156;8.220;2022-12-10T03:24:28;3.40;86.80
7658;DHT22;8462;53.156;8.220;2022-12-10T03:26:57;3.30;86.80
7658;DHT22;8462;53.156;8.220;2022-12-10T03:29:28;3.30;87.20
7658;DHT22;8462;53.156;8.220;2022-12-10T03:31:59;3.30;87.20
7658;DHT22;8462;53.156;8.220;2022-12-10T03:34:27;3.30;87.10
7658;DHT22;8462;53.156;8.220;2022-12-10T03:36:54;3.30;86.70
7658;DHT22;8462;53.156;8.220;2022-12-10T03:39:21;3.20;86.80
7658;DHT22;8462;53.156;8.220;2022-12-10T03:41:48;3.20;86.80
7658;DHT22;8462;53.156;8.220;2022-12-10T03:44:27;3.10;86.80
7658;DHT22;8462;53.156;8.220;2022-12-10T03:46:54;3.10;86.70
7658;DHT22;8462;53.156;8.220;2022-12-10T03:49:22;3.10;86.80
7658;DHT22;8462;53.156;8.220;2022-12-10T03:51:49;3.00;86.80
7658;DHT22;8462;53.156;8.220;2022-12-10T03:54:17;3.00;86.80
7658;DHT22;8462;53.156;8.220;2022-12-10T03:56:43;3.00;86.80
7658;DHT22;8462;53.156;8.220;2022-12-10T03:59:10;3.00;86.80
7658;DHT22;8462;53.156;8.220;2022-12-10T04:01:37;2.90;86.50
7658;DHT22;8462;53.156;8.220;2022-12-10T04:04:04;2.90;86.60
7658;DHT22;8462;53.156;8.220;2022-12-10T04:06:33;2.90;86.70
7658;DHT22;8462;53.156;8.220;2022-12-10T04:09:00;2.90;86.80
7658;DHT22;8462;53.156;8.220;2022-12-10T04:11:27;2.80;86.70
7658;DHT22;8462;53.156;8.220;2022-12-10T04:13:54;2.80;86.80
7658;DHT22;8462;53.156;8.220;2022-12-10T04:16:39;2.80;86.90
7658;DHT22;8462;53.156;8.220;2022-12-10T04:19:08;2.70;86.80
7658;DHT22;8462;53.156;8.220;2022-12-10T04:21:37;2.70;87.00
7658;DHT22;8462;53.156;8.220;2022-12-10T04:24:24;2.70;87.10
7658;DHT22;8462;53.156;8.220;2022-12-10T04:27:10;2.70;87.20
7658;DHT22;8462;53.156;8.220;2022-12-10T04:29:38;2.60;87.10
7658;DHT22;8462;53.156;8.220;2022-12-10T04:32:05;2.60;88.20
7658;DHT22;8462;53.156;8.220;2022-12-10T04:34:32;2.60;87.20
7658;DHT22;8462;53.156;8.220;2022-12-10T04:37:02;2.60;87.30
7658;DHT22;8462;53.156;8.220;2022-12-10T04:39:29;2.50;87.20
7658;DHT22;8462;53.156;8.220;2022-12-10T04:41:57;2.50;87.20
7658;DHT22;8462;53.156;8.220;2022-12-10T04:44:25;2.50;87.20
7658;DHT22;8462;53.156;8.220;2022-12-10T04:46:52;2.50;87.30
7658;DHT22;8462;53.156;8.220;2022-12-10T04:49:19;2.40;87.20
7658;DHT22;8462;53.156;8.220;2022-12-10T04:51:47;2.40;87.30
7658;DHT22;8462;53.156;8.220;2022-12-10T04:54:15;2.40;87.40
7658;DHT22;8462;53.156;8.220;2022-12-10T04:56:43;2.40;87.40
7658;DHT22;8462;53.156;8.220;2022-12-10T04:59:11;2.30;87.30
7658;DHT22;8462;53.156;8.220;2022-12-10T05:01:39;2.40;87.40
7658;DHT22;8462;53.156;8.220;2022-12-10T05:04:07;2.30;87.20
7658;DHT22;8462;53.156;8.220;2022-12-10T05:06:35;2.30;87.40
7658;DHT22;8462;53.156;8.220;2022-12-10T05:09:03;2.30;87.30
7658;DHT22;8462;53.156;8.220;2022-12-10T05:11:32;2.30;87.30
7658;DHT22;8462;53.156;8.220;2022-12-10T05:13:59;2.30;87.50
7658;DHT22;8462;53.156;8.220;2022-12-10T05:16:28;2.20;87.50
7658;DHT22;8462;53.156;8.220;2022-12-10T05:18:56;2.20;87.60
7658;DHT22;8462;53.156;8.220;2022-12-10T05:21:24;2.20;87.70
7658;DHT22;8462;53.156;8.220;2022-12-10T05:24:13;2.20;87.90
7658;DHT22;8462;53.156;8.220;2022-12-10T05:26:40;2.30;88.20
7658;DHT22;8462;53.156;8.220;2022-12-10T05:29:08;2.30;88.00
7658;DHT22;8462;53.156;8.220;2022-12-10T05:31:35;2.30;87.80
7658;DHT22;8462;53.156;8.220;2022-12-10T05:34:02;2.40;87.70
7658;DHT22;8462;53.156;8.220;2022-12-10T05:36:31;2.40;87.50
7658;DHT22;8462;53.156;8.220;2022-12-10T05:38:58;2.50;87.30
7658;DHT22;8462;53.156;8.220;2022-12-10T05:41:26;2.50;87.20
7658;DHT22;8462;53.156;8.220;2022-12-10T05:43:56;2.50;86.90
7658;DHT22;8462;53.156;8.220;2022-12-10T05:46:24;2.60;86.80
7658;DHT22;8462;53.156;8.220;2022-12-10T05:48:52;2.50;86.70
7658;DHT22;8462;53.156;8.220;2022-12-10T05:51:21;2.50;86.70
7658;DHT22;8462;53.156;8.220;2022-12-10T05:53:48;2.60;87.00
7658;DHT22;8462;53.156;8.220;2022-12-10T05:56:16;2.60;86.90
7658;DHT22;8462;53.156;8.220;2022-12-10T05:58:45;2.60;86.60
7658;DHT22;8462;53.156;8.220;2022-12-10T06:01:15;2.70;86.70
7658;DHT22;8462;53.156;8.220;2022-12-10T06:03:42;2.80;86.80
7658;DHT22;8462;53.156;8.220;2022-12-10T06:06:10;2.80;86.50
7658;DHT22;8462;53.156;8.220;2022-12-10T06:08:38;2.90;86.00
7658;DHT22;8462;53.156;8.220;2022-12-10T06:11:08;2.90;85.70
7658;DHT22;8462;53.156;8.220;2022-12-10T06:13:35;2.90;85.80
7658;DHT22;8462;53.156;8.220;2022-12-10T06:16:04;2.90;85.80
7658;DHT22;8462;53.156;8.220;2022-12-10T06:18:33;2.90;85.80
7658;DHT22;8462;53.156;8.220;2022-12-10T06:21:02;2.90;86.10
7658;DHT22;8462;53.156;8.220;2022-12-10T06:23:29;2.90;85.80
7658;DHT22;8462;53.156;8.220;2022-12-10T06:25:56;3.00;85.80
7658;DHT22;8462;53.156;8.220;2022-12-10T06:28:24;3.00;85.50
7658;DHT22;8462;53.156;8.220;2022-12-10T06:30:51;3.00;85.60
7658;DHT22;8462;53.156;8.220;2022-12-10T06:33:18;3.00;85.30
7658;DHT22;8462;53.156;8.220;2022-12-10T06:35:46;3.00;85.50
7658;DHT22;8462;53.156;8.220;2022-12-10T06:38:13;3.00;85.40
7658;DHT22;8462;53.156;8.220;2022-12-10T06:40:40;3.00;85.60
7658;DHT22;8462;53.156;8.220;2022-12-10T06:43:07;3.00;85.40
7658;DHT22;8462;53.156;8.220;2022-12-10T06:45:33;3.00;85.50
7658;DHT22;8462;53.156;8.220;2022-12-10T06:48:04;3.00;85.20
7658;DHT22;8462;53.156;8.220;2022-12-10T06:50:31;3.00;85.40
7658;DHT22;8462;53.156;8.220;2022-12-10T06:53:00;3.00;85.40
7658;DHT22;8462;53.156;8.220;2022-12-10T06:55:29;3.00;85.70
7658;DHT22;8462;53.156;8.220;2022-12-10T06:57:56;3.00;85.70
7658;DHT22;8462;53.156;8.220;2022-12-10T07:00:23;3.00;85.50
7658;DHT22;8462;53.156;8.220;2022-12-10T07:02:50;3.00;85.60
7658;DHT22;8462;53.156;8.220;2022-12-10T07:05:18;3.00;85.60
7658;DHT22;8462;53.156;8.220;2022-12-10T07:07:45;3.00;85.70
7658;DHT22;8462;53.156;8.220;2022-12-10T07:10:14;3.00;85.70
7658;DHT22;8462;53.156;8.220;2022-12-10T07:12:41;3.00;85.90
7658;DHT22;8462;53.156;8.220;2022-12-10T07:15:08;3.00;86.10
7658;DHT22;8462;53.156;8.220;2022-12-10T07:17:35;3.00;86.30
7658;DHT22;8462;53.156;8.220;2022-12-10T07:20:03;3.10;86.20
7658;DHT22;8462;53.156;8.220;2022-12-10T07:22:30;3.10;86.10
7658;DHT22;8462;53.156;8.220;2022-12-10T07:24:56;3.20;86.00
7658;DHT22;8462;53.156;8.220;2022-12-10T07:27:25;3.20;86.00
7658;DHT22;8462;53.156;8.220;2022-12-10T07:29:52;3.30;85.20
7658;DHT22;8462;53.156;8.220;2022-12-10T07:32:19;3.30;85.20
7658;DHT22;8462;53.156;8.220;2022-12-10T07:34:45;3.30;85.40
7658;DHT22;8462;53.156;8.220;2022-12-10T07:37:12;3.30;85.20
7658;DHT22;8462;53.156;8.220;2022-12-10T07:39:39;3.40;85.40
7658;DHT22;8462;53.156;8.220;2022-12-10T07:42:08;3.40;85.40
7658;DHT22;8462;53.156;8.220;2022-12-10T07:44:39;3.40;85.60
7658;DHT22;8462;53.156;8.220;2022-12-10T07:47:05;3.40;85.20
7658;DHT22;8462;53.156;8.220;2022-12-10T07:49:32;3.50;84.70
7658;DHT22;8462;53.156;8.220;2022-12-10T07:51:59;3.50;84.40
7658;DHT22;8462;53.156;8.220;2022-12-10T07:54:26;3.50;84.50
7658;DHT22;8462;53.156;8.220;2022-12-10T07:56:54;3.60;84.40
7658;DHT22;8462;53.156;8.220;2022-12-10T07:59:20;3.50;84.20
7658;DHT22;8462;53.156;8.220;2022-12-10T08:01:49;3.50;84.40
7658;DHT22;8462;53.156;8.220;2022-12-10T08:04:16;3.60;84.80
7658;DHT22;8462;53.156;8.220;2022-12-10T08:06:42;3.60;85.00
7658;DHT22;8462;53.156;8.220;2022-12-10T08:09:10;3.60;85.70
7658;DHT22;8462;53.156;8.220;2022-12-10T08:11:37;3.70;84.30
7658;DHT22;8462;53.156;8.220;2022-12-10T08:14:04;3.70;84.20
7658;DHT22;8462;53.156;8.220;2022-12-10T08:16:31;3.60;84.40
7658;DHT22;8462;53.156;8.220;2022-12-10T08:19:00;3.70;84.60
7658;DHT22;8462;53.156;8.220;2022-12-10T08:21:29;3.70;84.50
7658;DHT22;8462;53.156;8.220;2022-12-10T08:23:57;3.80;84.30
7658;DHT22;8462;53.156;8.220;2022-12-10T08:26:25;3.80;84.50
7658;DHT22;8462;53.156;8.220;2022-12-10T08:28:54;3.80;84.40
7658;DHT22;8462;53.156;8.220;2022-12-10T08:31:22;3.70;84.10
7658;DHT22;8462;53.156;8.220;2022-12-10T08:33:50;3.80;84.20
7658;DHT22;8462;53.156;8.220;2022-12-10T08:36:19;3.80;84.80
7658;DHT22;8462;53.156;8.220;2022-12-10T08:38:46;3.80;84.40
7658;DHT22;8462;53.156;8.220;2022-12-10T08:41:15;3.80;84.30
7658;DHT22;8462;53.156;8.220;2022-12-10T08:43:42;3.80;84.30
7658;DHT22;8462;53.156;8.220;2022-12-10T08:46:10;3.80;84.80
7658;DHT22;8462;53.156;8.220;2022-12-10T08:48:37;3.90;84.80
7658;DHT22;8462;53.156;8.220;2022-12-10T08:51:06;3.90;84.30
7658;DHT22;8462;53.156;8.220;2022-12-10T08:53:34;3.90;84.50
7658;DHT22;8462;53.156;8.220;2022-12-10T08:56:02;4.00;85.00
7658;DHT22;8462;53.156;8.220;2022-12-10T08:58:29;4.00;84.20
7658;DHT22;8462;53.156;8.220;2022-12-10T09:00:56;4.00;83.80
7658;DHT22;8462;53.156;8.220;2022-12-10T09:03:24;4.00;83.90
7658;DHT22;8462;53.156;8.220;2022-12-10T09:05:51;4.00;84.30
7658;DHT22;8462;53.156;8.220;2022-12-10T09:08:19;4.00;83.70
7658;DHT22;8462;53.156;8.220;2022-12-10T09:10:47;4.00;84.40
7658;DHT22;8462;53.156;8.220;2022-12-10T09:13:14;4.00;84.40
7658;DHT22;8462;53.156;8.220;2022-12-10T09:15:41;4.10;84.40
7658;DHT22;8462;53.156;8.220;2022-12-10T09:18:15;4.10;84.20
7658;DHT22;8462;53.156;8.220;2022-12-10T09:20:41;4.10;83.90
7658;DHT22;8462;53.156;8.220;2022-12-10T09:23:08;4.10;83.70
7658;DHT22;8462;53.156;8.220;2022-12-10T09:25:35;4.10;83.70
7658;DHT22;8462;53.156;8.220;2022-12-10T09:28:04;4.10;83.90
7658;DHT22;8462;53.156;8.220;2022-12-10T09:30:31;4.10;84.00
7658;DHT22;8462;53.156;8.220;2022-12-10T09:32:58;4.20;84.10
7658;DHT22;8462;53.156;8.220;2022-12-10T09:35:24;4.20;84.10
7658;DHT22;8462;53.156;8.220;2022-12-10T09:37:51;4.20;83.40
7658;DHT22;8462;53.156;8.220;2022-12-10T09:40:24;4.20;83.70
7658;DHT22;8462;53.156;8.220;2022-12-10T09:42:57;4.20;83.70
7658;DHT22;8462;53.156;8.220;2022-12-10T09:45:34;4.20;83.50
7658;DHT22;8462;53.156;8.220;2022-12-10T09:48:14;4.20;83.80
7658;DHT22;8462;53.156;8.220;2022-12-10T09:50:50;4.30;84.20
7658;DHT22;8462;53.156;8.220;2022-12-10T09:53:20;4.30;83.60
7658;DHT22;8462;53.156;8.220;2022-12-10T09:55:50;4.30;83.30
7658;DHT22;8462;53.156;8.220;2022-12-10T09:58:19;4.30;83.50
7658;DHT22;8462;53.156;8.220;2022-12-10T10:00:51;4.30;84.10
7658;DHT22;8462;53.156;8.220;2022-12-10T10:03:19;4.40;83.80
7658;DHT22;8462;53.156;8.220;2022-12-10T10:05:47;4.30;83.50
7658;DHT22;8462;53.156;8.220;2022-12-10T10:08:23;4.40;83.80
7658;DHT22;8462;53.156;8.220;2022-12-10T10:10:58;4.40;83.20
7658;DHT22;8462;53.156;8.220;2022-12-10T10:13:32;4.50;83.20
7658;DHT22;8462;53.156;8.220;2022-12-10T10:16:18;4.50;84.00
7658;DHT22;8462;53.156;8.220;2022-12-10T10:18:48;4.60;83.30
7658;DHT22;8462;53.156;8.220;2022-12-10T10:21:20;4.70;83.00
7658;DHT22;8462;53.156;8.220;2022-12-10T10:23:48;4.70;82.50
7658;DHT22;8462;53.156;8.220;2022-12-10T10:26:16;4.80;83.30
7658;DHT22;8462;53.156;8.220;2022-12-10T10:28:43;4.90;82.80
7658;DHT22;8462;53.156;8.220;2022-12-10T10:31:19;4.90;81.50
7658;DHT22;8462;53.156;8.220;2022-12-10T10:33:52;4.90;81.20
7658;DHT22;8462;53.156;8.220;2022-12-10T10:36:27;4.80;81.10
7658;DHT22;8462;53.156;8.220;2022-12-10T10:38:56;4.80;81.10
7658;DHT22;8462;53.156;8.220;2022-12-10T10:41:25;4.90;81.40
7658;DHT22;8462;53.156;8.220;2022-12-10T10:43:59;4.90;81.20
7658;DHT22;8462;53.156;8.220;2022-12-10T10:46:35;5.00;81.00
7658;DHT22;8462;53.156;8.220;2022-12-10T10:49:18;5.10;80.70
7658;DHT22;8462;53.156;8.220;2022-12-10T10:51:46;5.10;81.20
7658;DHT22;8462;53.156;8.220;2022-12-10T10:54:31;5.10;79.20
7658;DHT22;8462;53.156;8.220;2022-12-10T10:57:02;5.10;79.20
7658;DHT22;8462;53.156;8.220;2022-12-10T10:59:32;5.10;80.10
7658;DHT22;8462;53.156;8.220;2022-12-10T11:02:05;5.00;79.80
7658;DHT22;8462;53.156;8.220;2022-12-10T11:04:48;5.10;80.30
7658;DHT22;8462;53.156;8.220;2022-12-10T11:07:20;5.10;80.00
7658;DHT22;8462;53.156;8.220;2022-12-10T11:09:49;5.20;79.80
7658;DHT22;8462;53.156;8.220;2022-12-10T11:12:34;5.20;79.10
7658;DHT22;8462;53.156;8.220;2022-12-10T11:15:28;5.30;78.70
7658;DHT22;8462;53.156;8.220;2022-12-10T11:17:58;5.30;78.30
7658;DHT22;8462;53.156;8.220;2022-12-10T11:20:31;5.20;78.40
7658;DHT22;8462;53.156;8.220;2022-12-10T11:23:00;5.20;78.60
7658;DHT22;8462;53.156;8.220;2022-12-10T11:25:46;5.30;78.70
7658;DHT22;8462;53.156;8.220;2022-12-10T11:28:29;5.30;79.30
7658;DHT22;8462;53.156;8.220;2022-12-10T11:31:12;5.40;79.40
7658;DHT22;8462;53.156;8.220;2022-12-10T11:33:46;5.40;78.50
7658;DHT22;8462;53.156;8.220;2022-12-10T11:36:25;5.40;79.10
7658;DHT22;8462;53.156;8.220;2022-12-10T11:39:05;5.50;78.30
7658;DHT22;8462;53.156;8.220;2022-12-10T11:41:40;5.50;78.00
7658;DHT22;8462;53.156;8.220;2022-12-10T11:44:16;5.50;78.10
7658;DHT22;8462;53.156;8.220;2022-12-10T11:47:14;5.50;77.30
7658;DHT22;8462;53.156;8.220;2022-12-10T11:49:55;5.50;78.00
7658;DHT22;8462;53.156;8.220;2022-12-10T11:52:34;5.50;77.70
7658;DHT22;8462;53.156;8.220;2022-12-10T11:55:07;5.50;77.30
7658;DHT22;8462;53.156;8.220;2022-12-10T11:57:43;5.40;77.60
7658;DHT22;8462;53.156;8.220;2022-12-10T12:00:20;5.40;77.90
7658;DHT22;8462;53.156;8.220;2022-12-10T12:03:08;5.40;77.40
7658;DHT22;8462;53.156;8.220;2022-12-10T12:05:54;5.40;77.60
7658;DHT22;8462;53.156;8.220;2022-12-10T12:08:31;5.40;77.90
7658;DHT22;8462;53.156;8.220;2022-12-10T12:11:12;5.30;77.70
7658;DHT22;8462;53.156;8.220;2022-12-10T12:13:46;5.30;77.60
7658;DHT22;8462;53.156;8.220;2022-12-10T12:16:19;5.30;78.00
7658;DHT22;8462;53.156;8.220;2022-12-10T12:18:53;5.30;78.30
7658;DHT22;8462;53.156;8.220;2022-12-10T12:21:25;5.30;78.30
7658;DHT22;8462;53.156;8.220;2022-12-10T12:23:55;5.40;78.10
7658;DHT22;8462;53.156;8.220;2022-12-10T12:26:27;5.40;77.80
7658;DHT22;8462;53.156;8.220;2022-12-10T12:28:59;5.40;77.20
7658;DHT22;8462;53.156;8.220;2022-12-10T12:31:31;5.30;77.70
7658;DHT22;8462;53.156;8.220;2022-12-10T12:34:01;5.40;78.00
7658;DHT22;8462;53.156;8.220;2022-12-10T12:36:32;5.40;77.50
7658;DHT22;8462;53.156;8.220;2022-12-10T12:39:04;5.40;76.90
7658;DHT22;8462;53.156;8.220;2022-12-10T12:41:40;5.40;77.30
7658;DHT22;8462;53.156;8.220;2022-12-10T12:44:14;5.30;77.50
7658;DHT22;8462;53.156;8.220;2022-12-10T12:46:44;5.40;77.50
7658;DHT22;8462;53.156;8.220;2022-12-10T12:49:18;5.30;77.10
7658;DHT22;8462;53.156;8.220;2022-12-10T12:51:52;5.30;77.80
7658;DHT22;8462;53.156;8.220;2022-12-10T12:54:20;5.30;78.00
7658;DHT22;8462;53.156;8.220;2022-12-10T12:57:03;5.40;77.70
7658;DHT22;8462;53.156;8.220;2022-12-10T12:59:45;5.40;77.90
7658;DHT22;8462;53.156;8.220;2022-12-10T13:02:20;5.50;77.70
7658;DHT22;8462;53.156;8.220;2022-12-10T13:04:50;5.50;77.50
7658;DHT22;8462;53.156;8.220;2022-12-10T13:07:30;5.40;77.00
7658;DHT22;8462;53.156;8.220;2022-12-10T13:10:27;5.40;76.70
7658;DHT22;8462;53.156;8.220;2022-12-10T13:13:16;5.40;76.70
7658;DHT22;8462;53.156;8.220;2022-12-10T13:15:48;5.30;77.50
7658;DHT22;8462;53.156;8.220;2022-12-10T13:18:36;5.30;77.00
7658;DHT22;8462;53.156;8.220;2022-12-10T13:21:27;5.40;77.10
7658;DHT22;8462;53.156;8.220;2022-12-10T13:24:10;5.40;77.50
7658;DHT22;8462;53.156;8.220;2022-12-10T13:27:00;5.40;76.80
7658;DHT22;8462;53.156;8.220;2022-12-10T13:29:44;5.30;76.60
7658;DHT22;8462;53.156;8.220;2022-12-10T13:32:15;5.20;76.50
7658;DHT22;8462;53.156;8.220;2022-12-10T13:34:42;5.20;76.70
7658;DHT22;8462;53.156;8.220;2022-12-10T13:37:28;5.10;77.20
7658;DHT22;8462;53.156;8.220;2022-12-10T13:40:22;5.10;77.40
7658;DHT22;8462;53.156;8.220;2022-12-10T13:42:57;5.10;77.20
7658;DHT22;8462;53.156;8.220;2022-12-10T13:45:42;5.10;77.00
7658;DHT22;8462;53.156;8.220;2022-12-10T13:48:29;4.90;77.30
7658;DHT22;8462;53.156;8.220;2022-12-10T13:51:21;4.90;77.30
7658;DHT22;8462;53.156;8.220;2022-12-10T13:54:03;5.00;78.00
7658;DHT22;8462;53.156;8.220;2022-12-10T13:56:40;4.90;77.90
7658;DHT22;8462;53.156;8.220;2022-12-10T13:59:27;5.00;78.40
7658;DHT22;8462;53.156;8.220;2022-12-10T14:02:06;5.00;78.20
7658;DHT22;8462;53.156;8.220;2022-12-10T14:05:03;5.00;78.40
7658;DHT22;8462;53.156;8.220;2022-12-10T14:07:32;4.90;78.60
7658;DHT22;8462;53.156;8.220;2022-12-10T14:10:00;4.90;79.00
7658;DHT22;8462;53.156;8.220;2022-12-10T14:12:31;4.90;79.00
7658;DHT22;8462;53.156;8.220;2022-12-10T14:15:02;4.90;78.90
7658;DHT22;8462;53.156;8.220;2022-12-10T14:17:34;4.90;79.30
7658;DHT22;8462;53.156;8.220;2022-12-10T14:20:04;4.90;79.40
7658;DHT22;8462;53.156;8.220;2022-12-10T14:22:34;4.80;79.40
7658;DHT22;8462;53.156;8.220;2022-12-10T14:25:04;4.80;79.50
7658;DHT22;8462;53.156;8.220;2022-12-10T14:27:36;4.70;79.60
7658;DHT22;8462;53.156;8.220;2022-12-10T14:30:17;4.80;80.00
7658;DHT22;8462;53.156;8.220;2022-12-10T14:32:45;4.80;79.90
7658;DHT22;8462;53.156;8.220;2022-12-10T14:35:15;4.70;79.60
7658;DHT22;8462;53.156;8.220;2022-12-10T14:37:45;4.70;80.00
7658;DHT22;8462;53.156;8.220;2022-12-10T14:40:19;4.70;80.10
7658;DHT22;8462;53.156;8.220;2022-12-10T14:42:47;4.70;80.10
7658;DHT22;8462;53.156;8.220;2022-12-10T14:45:15;4.70;80.00
7658;DHT22;8462;53.156;8.220;2022-12-10T14:47:42;4.60;79.70
7658;DHT22;8462;53.156;8.220;2022-12-10T14:50:11;4.60;80.10
7658;DHT22;8462;53.156;8.220;2022-12-10T14:52:43;4.60;80.00
7658;DHT22;8462;53.156;8.220;2022-12-10T14:55:14;4.60;80.40
7658;DHT22;8462;53.156;8.220;2022-12-10T14:57:43;4.60;80.60
7658;DHT22;8462;53.156;8.220;2022-12-10T15:00:16;4.50;80.20
7658;DHT22;8462;53.156;8.220;2022-12-10T15:02:45;4.50;80.20
7658;DHT22;8462;53.156;8.220;2022-12-10T15:05:17;4.40;80.20
7658;DHT22;8462;53.156;8.220;2022-12-10T15:07:50;4.40;80.50
7658;DHT22;8462;53.156;8.220;2022-12-10T15:10:23;4.40;80.30
7658;DHT22;8462;53.156;8.220;2022-12-10T15:12:51;4.40;80.80
7658;DHT22;8462;53.156;8.220;2022-12-10T15:15:24;4.40;80.70
7658;DHT22;8462;53.156;8.220;2022-12-10T15:17:59;4.40;80.70
7658;DHT22;8462;53.156;8.220;2022-12-10T15:20:29;4.40;80.60
7658;DHT22;8462;53.156;8.220;2022-12-10T15:23:08;4.40;80.70
7658;DHT22;8462;53.156;8.220;2022-12-10T15:25:44;4.30;80.80
7658;DHT22;8462;53.156;8.220;2022-12-10T15:28:23;4.30;81.00
7658;DHT22;8462;53.156;8.220;2022-12-10T15:30:54;4.30;81.00
7658;DHT22;8462;53.156;8.220;2022-12-10T15:33:31;4.30;81.20
7658;DHT22;8462;53.156;8.220;2022-12-10T15:35:59;4.30;81.50
7658;DHT22;8462;53.156;8.220;2022-12-10T15:38:27;4.30;81.40
7658;DHT22;8462;53.156;8.220;2022-12-10T15:40:59;4.30;81.50
7658;DHT22;8462;53.156;8.220;2022-12-10T15:43:27;4.30;81.60
7658;DHT22;8462;53.156;8.220;2022-12-10T15:45:57;4.30;81.80
7658;DHT22;8462;53.156;8.220;2022-12-10T15:48:28;4.30;81.30
7658;DHT22;8462;53.156;8.220;2022-12-10T15:50:55;4.30;81.20
7658;DHT22;8462;53.156;8.220;2022-12-10T15:53:27;4.20;81.00
7658;DHT22;8462;53.156;8.220;2022-12-10T15:55:55;4.20;81.00
7658;DHT22;8462;53.156;8.220;2022-12-10T15:58:22;4.20;80.90
7658;DHT22;8462;53.156;8.220;2022-12-10T16:00:49;4.20;81.00
7658;DHT22;8462;53.156;8.220;2022-12-10T16:03:17;4.20;81.00
7658;DHT22;8462;53.156;8.220;2022-12-10T16:05:45;4.20;80.90
7658;DHT22;8462;53.156;8.220;2022-12-10T16:08:18;4.20;81.10
7658;DHT22;8462;53.156;8.220;2022-12-10T16:10:47;4.30;81.10
7658;DHT22;8462;53.156;8.220;2022-12-10T16:13:17;4.30;81.00
7658;DHT22;8462;53.156;8.220;2022-12-10T16:15:48;4.30;81.40
7658;DHT22;8462;53.156;8.220;2022-12-10T16:18:18;4.20;81.50
7658;DHT22;8462;53.156;8.220;2022-12-10T16:20:45;4.30;81.50
7658;DHT22;8462;53.156;8.220;2022-12-10T16:23:12;4.30;81.20
7658;DHT22;8462;53.156;8.220;2022-12-10T16:25:41;4.30;80.80
7658;DHT22;8462;53.156;8.220;2022-12-10T16:28:12;4.30;80.90
7658;DHT22;8462;53.156;8.220;2022-12-10T16:30:43;4.30;81.00
7658;DHT22;8462;53.156;8.220;2022-12-10T16:33:11;4.30;81.00
7658;DHT22;8462;53.156;8.220;2022-12-10T16:35:40;4.20;80.70
7658;DHT22;8462;53.156;8.220;2022-12-10T16:38:13;4.20;81.10
7658;DHT22;8462;53.156;8.220;2022-12-10T16:40:42;4.20;80.60
7658;DHT22;8462;53.156;8.220;2022-12-10T16:43:18;4.20;80.90